createdAt,value
2019-04-11T00:01:45.211Z,53.00
2019-04-11T00:03:49.585Z,52.89
2019-04-11T00:05:57.292Z,52.87
2019-04-11T00:08:05.980Z,52.65
2019-04-11T00:10:14.503Z,53.26
2019-04-11T00:12:22.209Z,53.43
2019-04-11T00:14:29.722Z,53.56
2019-04-11T00:16:37.409Z,53.49
2019-04-11T00:18:45.046Z,53.38
2019-04-11T00:20:52.834Z,54.18
2019-04-11T00:23:00.361Z,53.64
2019-04-11T00:25:09.421Z,53.94
2019-04-11T00:27:17.201Z,53.83
2019-04-11T00:29:24.716Z,54.32
2019-04-11T00:31:32.699Z,53.92
2019-04-11T00:33:40.468Z,55.37
2019-04-11T00:35:48.086Z,54.45
2019-04-11T00:37:55.604Z,54.11
2019-04-11T00:40:03.891Z,54.44
2019-04-11T00:42:12.420Z,54.27
2019-04-11T00:44:20.913Z,54.56
2019-04-11T00:46:28.683Z,54.99
2019-04-11T00:48:37.614Z,55.70
2019-04-11T00:50:45.457Z,55.81
2019-04-11T00:52:53.723Z,57.31
2019-04-11T00:55:01.340Z,57.37
2019-04-11T00:57:08.998Z,58.55
2019-04-11T00:59:16.522Z,58.07
2019-04-11T01:01:24.046Z,59.49
2019-04-11T01:03:31.529Z,59.56
2019-04-11T01:05:39.425Z,60.44
2019-04-11T01:07:47.211Z,60.89
2019-04-11T01:09:54.866Z,59.04
2019-04-11T01:12:02.691Z,58.99
2019-04-11T01:14:10.301Z,58.78
2019-04-11T01:16:43.031Z,57.06
2019-04-11T01:18:50.571Z,56.64
2019-04-11T01:20:58.035Z,56.46
2019-04-11T01:23:06.769Z,57.69
2019-04-11T01:25:14.751Z,56.63
2019-04-11T01:27:23.614Z,56.58
2019-04-11T01:29:31.452Z,56.35
2019-04-11T01:31:39.899Z,56.96
2019-04-11T01:33:48.376Z,58.10
2019-04-11T01:35:55.877Z,58.75
2019-04-11T01:38:04.055Z,58.60
2019-04-11T01:40:11.834Z,59.04
2019-04-11T01:42:19.602Z,59.91
2019-04-11T01:44:28.313Z,59.27
2019-04-11T01:46:36.134Z,60.25
2019-04-11T01:48:52.057Z,60.37
2019-04-11T01:50:59.722Z,58.78
2019-04-11T01:53:07.394Z,59.84
2019-04-11T01:55:14.991Z,60.23
2019-04-11T01:57:22.454Z,59.77
2019-04-11T01:59:31.173Z,59.74
2019-04-11T02:01:49.406Z,59.15
2019-04-11T02:04:03.690Z,58.94
2019-04-11T02:06:11.820Z,58.80
2019-04-11T02:08:19.588Z,59.76
2019-04-11T02:10:28.594Z,59.28
2019-04-11T02:12:37.349Z,59.27
2019-04-11T02:14:45.903Z,59.49
2019-04-11T02:16:53.705Z,59.27
2019-04-11T02:19:01.667Z,59.47
2019-04-11T02:21:09.435Z,61.17
2019-04-11T02:23:21.550Z,61.38
2019-04-11T02:25:48.971Z,60.76
2019-04-11T02:27:58.101Z,61.57
2019-04-11T02:30:08.592Z,60.90
2019-04-11T02:32:18.259Z,60.18
2019-04-11T02:34:25.442Z,60.72
2019-04-11T02:36:34.199Z,59.99
2019-04-11T02:38:42.180Z,59.78
2019-04-11T02:40:50.695Z,59.37
2019-04-11T02:42:59.400Z,59.24
2019-04-11T02:45:22.472Z,59.01
2019-04-11T02:47:24.078Z,58.67
2019-04-11T02:49:27.796Z,58.92
2019-04-11T02:51:36.798Z,58.63
2019-04-11T02:53:45.102Z,58.41
2019-04-11T02:55:54.296Z,58.24
2019-04-11T02:58:04.015Z,57.90
2019-04-11T03:00:13.082Z,58.13
2019-04-11T03:02:21.470Z,58.07
2019-04-11T03:04:30.950Z,58.46
2019-04-11T03:06:39.643Z,59.16
2019-04-11T03:08:48.964Z,59.47
2019-04-11T03:10:57.724Z,59.25
2019-04-11T03:13:05.588Z,58.92
2019-04-11T03:15:28.726Z,59.18
2019-04-11T03:17:28.694Z,59.49
2019-04-11T03:19:43.962Z,58.59
2019-04-11T03:21:44.431Z,58.39
2019-04-11T03:23:51.372Z,59.24
2019-04-11T03:26:00.637Z,59.53
2019-04-11T03:28:13.735Z,59.92
2019-04-11T03:30:24.753Z,60.08
2019-04-11T03:35:35.004Z,58.71
2019-04-11T03:39:15.167Z,58.65
2019-04-11T03:41:25.291Z,58.97
2019-04-11T03:43:28.154Z,59.70
2019-04-11T03:45:43.521Z,60.38
2019-04-11T03:47:44.846Z,61.05
2019-04-11T03:49:51.070Z,60.95
2019-04-11T03:51:53.152Z,62.66
2019-04-11T03:54:02.186Z,61.48
2019-04-11T03:56:09.904Z,61.68
2019-04-11T03:58:19.661Z,61.27
2019-04-11T04:00:33.559Z,61.72
2019-04-11T04:02:37.241Z,61.57
2019-04-11T04:04:46.573Z,62.92
2019-04-11T04:06:55.209Z,60.95
2019-04-11T04:09:04.252Z,61.01
2019-04-11T04:11:27.053Z,60.50
2019-04-11T04:13:36.613Z,61.58
2019-04-11T04:16:11.984Z,60.85
2019-04-11T04:18:29.908Z,61.90
2019-04-11T04:20:59.699Z,61.66
2019-04-11T04:23:20.883Z,61.40
2019-04-11T04:25:29.116Z,61.22
2019-04-11T04:27:36.659Z,60.21
2019-04-11T04:29:49.013Z,60.19
2019-04-11T04:31:54.989Z,61.06
2019-04-11T04:34:03.874Z,62.14
2019-04-11T04:36:13.847Z,61.14
2019-04-11T04:38:21.200Z,60.78
2019-04-11T04:40:49.537Z,60.95
2019-04-11T04:42:47.710Z,60.68
2019-04-11T04:44:50.986Z,62.64
2019-04-11T04:47:13.589Z,61.62
2019-04-11T04:49:11.187Z,62.43
2019-04-11T04:51:20.566Z,61.49
2019-04-11T04:53:28.489Z,60.68
2019-04-11T04:55:36.804Z,59.86
2019-04-11T04:57:44.985Z,60.61
2019-04-11T04:59:53.205Z,60.35
2019-04-11T05:02:01.765Z,60.38
2019-04-11T05:04:11.339Z,59.93
2019-04-11T05:06:20.493Z,60.46
2019-04-11T05:08:28.226Z,60.68
2019-04-11T05:10:36.006Z,61.01
2019-04-11T05:12:43.918Z,61.15
2019-04-11T05:14:51.992Z,61.44
2019-04-11T05:17:00.419Z,61.03
2019-04-11T05:19:08.532Z,61.21
2019-04-11T05:21:17.058Z,60.86
2019-04-11T05:23:25.496Z,61.42
2019-04-11T05:25:32.986Z,61.18
2019-04-11T05:27:40.395Z,61.90
2019-04-11T05:29:47.777Z,62.54
2019-04-11T05:31:55.250Z,64.22
2019-04-11T05:34:03.502Z,62.95
2019-04-11T05:36:12.222Z,64.14
2019-04-11T05:38:20.731Z,62.43
2019-04-11T05:40:28.446Z,62.33
2019-04-11T05:42:35.865Z,63.46
2019-04-11T05:44:43.298Z,62.02
2019-04-11T05:46:56.189Z,62.79
2019-04-11T05:49:09.277Z,63.65
2019-04-11T05:51:21.190Z,62.51
2019-04-11T05:53:25.889Z,62.35
2019-04-11T05:55:41.416Z,62.48
2019-04-11T05:57:48.723Z,62.64
2019-04-11T05:59:57.669Z,61.96
2019-04-11T06:02:13.013Z,62.71
2019-04-11T06:04:28.602Z,61.10
2019-04-11T06:06:58.906Z,63.29
2019-04-11T06:09:13.440Z,63.91
2019-04-11T06:11:28.660Z,62.28
2019-04-11T06:13:53.482Z,62.37
2019-04-11T06:16:02.843Z,63.10
2019-04-11T06:18:25.957Z,62.14
2019-04-11T06:20:49.915Z,61.72
2019-04-11T06:23:08.164Z,62.89
2019-04-11T06:25:28.028Z,62.56
2019-04-11T06:27:57.916Z,62.35
2019-04-11T06:30:28.541Z,61.57
2019-04-11T06:32:54.363Z,61.65
2019-04-11T06:35:06.580Z,62.87
2019-04-11T06:37:41.635Z,62.06
2019-04-11T06:40:02.567Z,61.47
2019-04-11T06:42:40.614Z,60.77
2019-04-11T06:45:01.966Z,60.24
2019-04-11T06:47:27.160Z,60.54
2019-04-11T06:49:53.010Z,60.36
2019-04-11T06:52:02.473Z,60.28
2019-04-11T06:54:23.315Z,60.98
2019-04-11T06:56:41.149Z,60.02
2019-04-11T06:58:53.627Z,60.59
2019-04-11T07:01:05.495Z,58.80
2019-04-11T07:03:22.254Z,59.83
2019-04-11T07:05:24.722Z,60.51
2019-04-11T07:07:35.680Z,60.30
2019-04-11T07:09:49.254Z,59.69
2019-04-11T07:12:01.415Z,59.20
2019-04-11T07:14:26.970Z,58.20
2019-04-11T07:16:36.180Z,58.68
2019-04-11T07:18:53.312Z,59.37
2019-04-11T07:21:03.113Z,58.68
2019-04-11T07:23:28.511Z,57.79
2019-04-11T07:25:55.897Z,57.85
2019-04-11T07:28:11.014Z,57.49
2019-04-11T07:30:37.499Z,57.68
2019-04-11T07:32:45.180Z,56.52
2019-04-11T07:35:10.962Z,56.20
2019-04-11T07:37:32.663Z,55.89
2019-04-11T07:39:58.541Z,55.27
2019-04-11T07:42:23.904Z,54.69
2019-04-11T07:44:32.279Z,54.73
2019-04-11T07:46:55.935Z,54.85
2019-04-11T07:49:08.141Z,53.87
2019-04-11T07:51:34.744Z,53.79
2019-04-11T07:53:45.969Z,52.89
2019-04-11T07:55:55.433Z,52.17
2019-04-11T07:58:21.695Z,52.36
2019-04-11T08:00:52.882Z,50.78
2019-04-11T08:03:25.555Z,50.92
2019-04-11T08:06:03.810Z,51.20
2019-04-11T08:08:32.851Z,47.65
2019-04-11T08:10:45.749Z,47.93
2019-04-11T08:12:54.067Z,48.46
2019-04-11T08:15:38.491Z,44.90
2019-04-11T08:17:46.700Z,45.26
2019-04-11T08:20:25.652Z,46.27
2019-04-11T08:22:39.219Z,45.81
2019-04-11T08:24:56.498Z,46.46
2019-04-11T08:27:32.070Z,46.50
2019-04-11T08:29:39.606Z,47.64
2019-04-11T08:32:12.034Z,47.58
2019-04-11T08:34:20.681Z,47.57
2019-04-11T08:36:50.865Z,47.55
2019-04-11T08:38:58.604Z,47.21
2019-04-11T08:41:13.512Z,47.71
2019-04-11T08:43:27.049Z,48.17
2019-04-11T08:45:35.308Z,47.30
2019-04-11T08:47:49.215Z,45.51
2019-04-11T08:49:58.438Z,45.51
2019-04-11T08:52:11.850Z,46.08
2019-04-11T08:54:53.513Z,45.44
2019-04-11T08:57:01.316Z,46.09
2019-04-11T08:59:35.658Z,45.40
2019-04-11T09:01:44.316Z,44.08
2019-04-11T09:04:15.623Z,44.97
2019-04-11T09:06:30.506Z,44.80
2019-04-11T09:08:59.802Z,44.87
2019-04-11T09:11:26.105Z,44.38
2019-04-11T09:13:56.068Z,43.90
2019-04-11T09:16:21.576Z,43.31
2019-04-11T09:18:30.240Z,44.21
2019-04-11T09:21:00.123Z,43.72
2019-04-11T09:23:13.482Z,42.30
2019-04-11T09:25:43.470Z,43.96
2019-04-11T09:28:11.265Z,44.29
2019-04-11T09:30:28.612Z,44.74
2019-04-11T09:33:01.383Z,44.82
2019-04-11T09:35:18.535Z,44.89
2019-04-11T09:37:36.022Z,44.85
2019-04-11T09:40:15.337Z,44.73
2019-04-11T09:42:43.005Z,44.64
2019-04-11T09:44:59.377Z,44.92
2019-04-11T09:47:38.391Z,45.04
2019-04-11T09:49:51.589Z,44.76
2019-04-11T09:52:07.336Z,44.41
2019-04-11T09:54:26.187Z,44.47
2019-04-11T09:56:56.015Z,44.62
2019-04-11T09:59:09.023Z,45.18
2019-04-11T10:01:35.444Z,44.93
2019-04-11T10:03:45.033Z,44.84
2019-04-11T10:06:26.422Z,44.07
2019-04-11T10:08:59.740Z,44.04
2019-04-11T10:11:32.654Z,43.88
2019-04-11T10:14:01.785Z,43.12
2019-04-11T10:16:31.807Z,43.63
2019-04-11T10:19:01.290Z,43.44
2019-04-11T10:21:09.018Z,43.21
2019-04-11T10:23:45.126Z,43.09
2019-04-11T10:25:56.401Z,43.57
2019-04-11T10:28:21.819Z,43.84
2019-04-11T10:30:48.256Z,44.06
2019-04-11T10:32:59.419Z,43.47
2019-04-11T10:35:24.377Z,43.83
2019-04-11T10:37:32.351Z,43.84
2019-04-11T10:40:05.886Z,44.11
2019-04-11T10:42:14.864Z,43.76
2019-04-11T10:44:28.436Z,43.69
2019-04-11T10:46:49.509Z,43.59
2019-04-11T10:49:05.394Z,42.76
2019-04-11T10:51:30.361Z,41.57
2019-04-11T10:53:39.436Z,41.65
2019-04-11T10:56:09.031Z,41.29
2019-04-11T10:58:22.546Z,38.97
2019-04-11T11:00:40.396Z,40.96
2019-04-11T11:03:09.616Z,40.04
2019-04-11T11:05:19.140Z,39.81
2019-04-11T11:07:30.779Z,40.26
2019-04-11T11:10:03.518Z,40.38
2019-04-11T11:12:25.248Z,40.92
2019-04-11T11:14:55.382Z,39.97
2019-04-11T11:17:10.774Z,40.74
2019-04-11T11:19:50.175Z,41.44
2019-04-11T11:21:45.165Z,41.75
2019-04-11T11:24:11.736Z,41.47
2019-04-11T11:26:26.249Z,41.71
2019-04-11T11:28:36.753Z,41.78
2019-04-11T11:31:03.198Z,41.63
2019-04-11T11:33:11.036Z,41.16
2019-04-11T11:35:50.047Z,41.34
2019-04-11T11:38:06.015Z,41.33
2019-04-11T11:40:32.049Z,40.24
2019-04-11T11:42:58.786Z,40.79
2019-04-11T11:45:14.411Z,40.91
2019-04-11T11:47:41.448Z,40.54
2019-04-11T11:49:57.339Z,40.46
2019-04-11T11:52:35.042Z,40.57
2019-04-11T11:54:46.678Z,40.02
2019-04-11T11:56:56.439Z,40.53
2019-04-11T11:59:25.121Z,40.26
2019-04-11T12:01:32.928Z,40.45
2019-04-11T12:04:01.288Z,40.72
2019-04-11T12:06:09.541Z,39.92
2019-04-11T12:08:54.257Z,39.47
2019-04-11T12:11:05.951Z,39.42
2019-04-11T12:13:32.656Z,38.22
2019-04-11T12:16:03.579Z,38.31
2019-04-11T12:18:49.529Z,37.77
2019-04-11T12:20:59.326Z,37.02
2019-04-11T12:23:15.082Z,37.09
2019-04-11T12:25:25.411Z,37.44
2019-04-11T12:28:00.773Z,37.03
2019-04-11T12:30:30.542Z,37.07
2019-04-11T12:32:37.075Z,36.90
2019-04-11T12:35:00.354Z,37.29
2019-04-11T12:37:12.549Z,37.48
2019-04-11T12:39:47.885Z,37.53
2019-04-11T12:41:57.983Z,37.65
2019-04-11T12:44:23.324Z,36.81
2019-04-11T12:46:48.404Z,35.76
2019-04-11T12:49:00.317Z,36.14
2019-04-11T12:51:39.002Z,35.54
2019-04-11T12:53:48.178Z,35.63
2019-04-11T12:56:20.403Z,35.57
2019-04-11T12:58:30.593Z,34.91
2019-04-11T13:00:53.248Z,35.44
2019-04-11T13:03:18.992Z,35.82
2019-04-11T13:05:26.606Z,37.40
2019-04-11T13:08:05.100Z,37.88
2019-04-11T13:10:25.640Z,37.71
2019-04-11T13:12:54.753Z,37.91
2019-04-11T13:15:27.337Z,38.12
2019-04-11T13:17:37.531Z,38.14
2019-04-11T13:20:04.903Z,37.25
2019-04-11T13:22:17.999Z,36.69
2019-04-11T13:24:53.394Z,36.75
2019-04-11T13:27:12.801Z,36.46
2019-04-11T13:29:45.011Z,36.54
2019-04-11T13:32:10.221Z,36.39
2019-04-11T13:34:17.799Z,35.89
2019-04-11T13:36:50.070Z,36.57
2019-04-11T13:38:57.609Z,36.59
2019-04-11T13:41:42.237Z,36.38
2019-04-11T13:44:06.883Z,35.38
2019-04-11T13:46:25.352Z,34.30
2019-04-11T13:49:01.241Z,34.73
2019-04-11T13:51:14.203Z,36.40
2019-04-11T13:53:39.432Z,37.41
2019-04-11T13:55:46.823Z,37.03
2019-04-11T13:58:13.479Z,36.84
2019-04-11T14:00:41.794Z,36.56
2019-04-11T14:03:11.010Z,36.52
2019-04-11T14:05:18.406Z,36.55
2019-04-11T14:07:26.001Z,37.06
2019-04-11T14:09:41.169Z,37.67
2019-04-11T14:11:50.312Z,38.10
2019-04-11T14:13:57.794Z,38.80
2019-04-11T14:16:10.154Z,38.92
2019-04-11T14:18:29.645Z,38.65
2019-04-11T14:20:49.331Z,38.11
2019-04-11T14:23:18.438Z,37.71
2019-04-11T14:25:53.657Z,37.98
2019-04-11T14:28:02.158Z,37.55
2019-04-11T14:30:35.089Z,37.46
2019-04-11T14:32:45.624Z,37.51
2019-04-11T14:35:10.649Z,37.54
2019-04-11T14:37:38.393Z,37.49
2019-04-11T14:39:46.912Z,37.13
2019-04-11T14:42:16.884Z,37.47
2019-04-11T14:44:24.841Z,37.31
2019-04-11T14:47:09.405Z,37.27
2019-04-11T14:49:18.108Z,37.28
2019-04-11T14:51:36.498Z,37.34
2019-04-11T14:54:18.271Z,37.47
2019-04-11T14:56:27.023Z,38.01
2019-04-11T14:58:53.856Z,37.66
2019-04-11T15:01:01.988Z,38.02
2019-04-11T15:03:34.435Z,38.31
2019-04-11T15:05:46.363Z,38.04
2019-04-11T15:07:54.094Z,37.82
2019-04-11T15:10:19.093Z,38.21
2019-04-11T15:12:27.896Z,38.40
2019-04-11T15:14:52.816Z,37.80
2019-04-11T15:17:19.038Z,37.95
2019-04-11T15:19:26.602Z,37.24
2019-04-11T15:22:11.190Z,37.97
2019-04-11T15:24:19.903Z,37.74
2019-04-11T15:26:54.957Z,37.82
2019-04-11T15:29:08.976Z,37.97
2019-04-11T15:31:39.452Z,38.03
2019-04-11T15:34:08.776Z,38.22
2019-04-11T15:36:17.612Z,38.28
2019-04-11T15:38:43.743Z,38.46
2019-04-11T15:40:54.403Z,38.73
2019-04-11T15:43:32.745Z,37.86
2019-04-11T15:46:01.784Z,38.16
2019-04-11T15:48:43.410Z,37.61
2019-04-11T15:51:18.435Z,37.66
2019-04-11T15:53:34.822Z,37.87
2019-04-11T15:56:01.104Z,38.16
2019-04-11T15:58:12.524Z,37.81
2019-04-11T16:00:36.991Z,38.03
2019-04-11T16:02:59.202Z,38.23
2019-04-11T16:05:24.237Z,39.01
2019-04-11T16:07:50.341Z,38.36
2019-04-11T16:09:57.809Z,38.83
2019-04-11T16:12:18.582Z,38.42
2019-04-11T16:14:37.773Z,39.11
2019-04-11T16:16:52.168Z,38.52
2019-04-11T16:19:17.722Z,38.50
2019-04-11T16:21:33.965Z,38.69
2019-04-11T16:23:58.482Z,38.43
2019-04-11T16:26:09.896Z,38.89
2019-04-11T16:28:55.847Z,39.23
2019-04-11T16:31:03.493Z,38.84
2019-04-11T16:33:28.610Z,39.32
2019-04-11T16:35:58.053Z,39.88
2019-04-11T16:38:07.060Z,39.99
2019-04-11T16:40:53.439Z,40.07
2019-04-11T16:43:05.006Z,39.86
2019-04-11T16:45:40.845Z,39.99
2019-04-11T16:48:02.083Z,40.14
2019-04-11T16:50:10.021Z,39.77
2019-04-11T16:52:17.686Z,40.16
2019-04-11T16:54:25.069Z,40.12
2019-04-11T16:56:32.672Z,40.06
2019-04-11T16:58:40.164Z,39.86
2019-04-11T17:00:52.089Z,40.21
2019-04-11T17:02:56.897Z,40.26
2019-04-11T17:05:05.044Z,39.84
2019-04-11T17:07:31.330Z,40.20
2019-04-11T17:09:44.926Z,39.71
2019-04-11T17:11:52.359Z,39.93
2019-04-11T17:14:00.606Z,40.43
2019-04-11T17:16:12.092Z,40.11
2019-04-11T17:18:19.809Z,40.10
2019-04-11T17:20:27.970Z,40.21
2019-04-11T17:22:35.602Z,40.46
2019-04-11T17:24:43.236Z,40.38
2019-04-11T17:26:52.818Z,40.44
2019-04-11T17:28:59.886Z,40.72
2019-04-11T17:31:07.626Z,40.49
2019-04-11T17:33:15.132Z,40.34
2019-04-11T17:35:22.730Z,40.30
2019-04-11T17:37:30.993Z,40.31
2019-04-11T17:39:39.377Z,40.58
2019-04-11T17:41:46.779Z,40.99
2019-04-11T17:43:54.272Z,41.06
2019-04-11T17:46:01.710Z,40.65
2019-04-11T17:48:10.295Z,40.71
2019-04-11T17:50:18.006Z,40.39
2019-04-11T17:52:25.498Z,40.21
2019-04-11T17:54:32.978Z,40.84
2019-04-11T17:56:40.497Z,41.05
2019-04-11T17:58:48.849Z,41.00
2019-04-11T18:01:00.526Z,41.18
2019-04-11T18:03:11.797Z,41.61
2019-04-11T18:05:17.707Z,41.72
2019-04-11T18:07:26.321Z,41.65
2019-04-11T18:09:34.184Z,41.10
2019-04-11T18:11:42.167Z,41.11
2019-04-11T18:13:49.703Z,41.50
2019-04-11T18:16:00.903Z,41.62
2019-04-11T18:18:07.887Z,41.57
2019-04-11T18:20:16.057Z,41.28
2019-04-11T18:22:23.934Z,41.37
2019-04-11T18:24:31.381Z,41.82
2019-04-11T18:26:39.363Z,41.80
2019-04-11T18:28:47.235Z,41.67
2019-04-11T18:30:54.868Z,41.77
2019-04-11T18:33:04.110Z,41.37
2019-04-11T18:35:12.467Z,41.90
2019-04-11T18:37:20.111Z,42.22
2019-04-11T18:39:27.711Z,41.81
2019-04-11T18:41:35.873Z,41.82
2019-04-11T18:43:46.796Z,42.66
2019-04-11T18:45:53.605Z,41.90
2019-04-11T18:48:01.077Z,42.29
2019-04-11T18:50:11.773Z,42.79
2019-04-11T18:52:20.223Z,42.11
2019-04-11T18:54:28.979Z,42.72
2019-04-11T18:56:38.052Z,42.64
2019-04-11T18:58:45.913Z,44.14
2019-04-11T19:00:53.907Z,43.71
2019-04-11T19:03:01.486Z,43.74
2019-04-11T19:05:10.878Z,44.59
2019-04-11T19:07:27.620Z,45.12
2019-04-11T19:09:29.666Z,45.85
2019-04-11T19:11:37.265Z,45.96
2019-04-11T19:13:47.030Z,46.60
2019-04-11T19:15:54.187Z,45.88
2019-04-11T19:18:06.783Z,45.54
2019-04-11T19:20:11.293Z,45.68
2019-04-11T19:22:20.826Z,44.36
2019-04-11T19:24:35.488Z,44.53
2019-04-11T19:26:37.469Z,44.44
2019-04-11T19:28:46.358Z,44.29
2019-04-11T19:30:56.116Z,44.89
2019-04-11T19:33:03.100Z,45.27
2019-04-11T19:35:10.983Z,45.54
2019-04-11T19:37:18.670Z,46.02
2019-04-11T19:39:30.327Z,46.13
2019-04-11T19:41:38.316Z,46.38
2019-04-11T19:43:48.722Z,47.22
2019-04-11T19:45:55.513Z,47.71
2019-04-11T19:48:03.073Z,48.36
2019-04-11T19:50:11.557Z,48.77
2019-04-11T19:52:19.404Z,49.63
2019-04-11T19:54:26.884Z,49.27
2019-04-11T19:56:39.599Z,50.09
2019-04-11T19:58:47.437Z,49.50
2019-04-11T20:00:55.562Z,49.87
2019-04-11T20:03:03.233Z,50.37
2019-04-11T20:05:12.339Z,50.38
2019-04-11T20:07:20.558Z,50.27
2019-04-11T20:09:29.349Z,50.55
2019-04-11T20:11:36.939Z,50.53
2019-04-11T20:13:44.431Z,51.35
2019-04-11T20:15:51.973Z,51.24
2019-04-11T20:17:59.537Z,51.53
2019-04-11T20:20:07.896Z,51.52
2019-04-11T20:22:15.500Z,51.78
2019-04-11T20:24:23.113Z,52.03
2019-04-11T20:26:30.655Z,52.17
2019-04-11T20:28:38.260Z,51.81
2019-04-11T20:30:46.029Z,52.27
2019-04-11T20:32:53.651Z,52.66
2019-04-11T20:35:01.171Z,52.24
2019-04-11T20:37:12.522Z,52.24
2019-04-11T20:39:18.161Z,53.30
2019-04-11T20:41:25.668Z,53.27
2019-04-11T20:43:33.129Z,53.67
2019-04-11T20:45:41.631Z,52.97
2019-04-11T20:47:49.169Z,53.51
2019-04-11T20:49:56.645Z,54.21
2019-04-11T20:52:04.806Z,54.67
2019-04-11T20:54:12.423Z,54.11
2019-04-11T20:56:24.325Z,54.72
2019-04-11T20:58:28.966Z,55.31
2019-04-11T21:00:49.221Z,55.39
2019-04-11T21:02:46.634Z,55.35
2019-04-11T21:04:54.461Z,54.97
2019-04-11T21:07:02.623Z,56.07
2019-04-11T21:09:12.686Z,56.00
2019-04-11T21:11:20.402Z,55.85
2019-04-11T21:13:27.827Z,55.65
2019-04-11T21:15:35.298Z,55.91
2019-04-11T21:17:42.908Z,56.01
2019-04-11T21:19:50.997Z,56.87
2019-04-11T21:22:00.142Z,56.14
2019-04-11T21:24:07.530Z,56.47
2019-04-11T21:26:15.907Z,56.92
2019-04-11T21:28:23.367Z,55.76
2019-04-11T21:30:31.229Z,56.76
2019-04-11T21:32:38.630Z,56.92
2019-04-11T21:34:46.116Z,57.82
2019-04-11T21:36:53.485Z,57.79
2019-04-11T21:39:03.569Z,57.87
2019-04-11T21:41:10.017Z,57.68
2019-04-11T21:43:17.405Z,57.84
2019-04-11T21:45:24.843Z,57.47
2019-04-11T21:47:32.219Z,58.92
2019-04-11T21:49:39.680Z,58.73
2019-04-11T21:51:47.350Z,58.47
2019-04-11T21:53:54.805Z,58.62
2019-04-11T21:56:02.276Z,59.35
2019-04-11T21:58:09.713Z,59.63
2019-04-11T22:00:27.703Z,59.62
2019-04-11T22:02:35.322Z,59.74
2019-04-11T22:04:42.684Z,59.56
2019-04-11T22:06:50.173Z,60.04
2019-04-11T22:08:57.729Z,60.09
2019-04-11T22:11:05.186Z,58.45
2019-04-11T22:13:12.614Z,60.06
2019-04-11T22:15:19.951Z,59.26
2019-04-11T22:17:27.305Z,59.93
2019-04-11T22:19:34.661Z,59.57
2019-04-11T22:21:45.025Z,60.58
2019-04-11T22:23:51.199Z,60.98
2019-04-11T22:25:58.599Z,61.27
2019-04-11T22:28:05.998Z,61.16
2019-04-11T22:30:15.553Z,61.16
2019-04-11T22:32:23.768Z,61.32
2019-04-11T22:34:44.065Z,61.15
2019-04-11T22:36:51.372Z,61.07
2019-04-11T22:39:01.006Z,61.24
2019-04-11T22:41:07.901Z,59.37
2019-04-11T22:43:24.088Z,58.82
2019-04-11T22:45:24.372Z,57.96
2019-04-11T22:47:31.877Z,58.32
2019-04-11T22:49:40.006Z,59.09
2019-04-11T22:51:47.514Z,59.02
2019-04-11T22:54:00.351Z,56.56
2019-04-11T22:56:04.098Z,56.63
2019-04-11T22:58:13.993Z,56.37
2019-04-11T23:00:20.687Z,56.15
2019-04-11T23:02:47.373Z,55.64
2019-04-11T23:04:54.674Z,55.39
2019-04-11T23:07:02.057Z,54.89
2019-04-11T23:09:09.806Z,55.13
2019-04-11T23:11:17.203Z,56.64
2019-04-11T23:13:24.673Z,55.75
2019-04-11T23:15:32.091Z,55.73
2019-04-11T23:17:41.784Z,56.54
2019-04-11T23:19:48.535Z,56.78
2019-04-11T23:21:55.866Z,56.46
2019-04-11T23:24:11.496Z,56.67
2019-04-11T23:26:12.323Z,56.88
2019-04-11T23:28:19.712Z,58.25
2019-04-11T23:30:27.109Z,57.58
2019-04-11T23:32:34.443Z,59.08
2019-04-11T23:34:41.811Z,58.52
2019-04-11T23:36:51.302Z,58.08
2019-04-11T23:38:58.357Z,57.53
2019-04-11T23:41:05.743Z,57.12
2019-04-11T23:43:15.252Z,56.71
2019-04-11T23:45:25.155Z,56.28
2019-04-11T23:47:32.546Z,57.03
2019-04-11T23:49:39.927Z,56.30
2019-04-11T23:51:47.364Z,56.29
2019-04-11T23:53:59.030Z,56.30
2019-04-11T23:56:03.785Z,56.65
2019-04-11T23:58:11.219Z,56.10
